Terminal Aerodrome Forecast
Issued by NWS Jackson, MS

Home | Current Version | Previous Version | Text Only | Print | Product List | Glossary On
Versions: 1 2 3 4 5 6 7 8 9 10 11 12 13 14 15 16 17 18
000
FTUS44 KJAN 240828 AAA
TAFHBG
TAF AMD
KHBG 240828Z 2408/2506 21003KT P6SM VCSH BKN010 OVC030
     FM241100 23003KT 6SM BR VCTS BKN025CB BKN090
     FM241500 26005KT P6SM SHRA VCTS BKN025CB BKN090
     FM250100 25004KT P6SM VCTS BKN090CB=

USA.gov is the U.S. government's official web portal to all federal, state and local government web resources and services.